Aérodrome :
LOGIN :

S'inscrire | Disclaimer

   EN    FR    IT 

 










Légende :    VFR   VFR Marginal   IFR   IFR Intensif   IFR Très Intensif
Visi : 
Plafond : 
>= 8 km
>= 3000ft
5 à 8 km
1000 à 3000 ft
1500m à 5 km
500 à 1000 ft
800 à 1500m
200 à 500 ft
< 800m
< 200 ft
Symboles :   Orages  Brouillard  Fortes neiges  Fortes précipitations  Vent > 20 kt
SIGMETs :   Divers  Orages  Givrage  Turbulence  Onde Orograph.  Cendres Volcan.






- Altitude de l'aérodrome : 101 ft
- Code IATA : GLO


EGBJ - Gloucestershire

DERNIER METAR :
  • 271450Z 32018KT 9999 FEW030 08/M01 Q1006

METARs EXPIRÉS :
  • 271420Z 32016G26KT 9999 SCT030 08/M01 Q1006
  • 271350Z 31016KT 9999 SCT030 08/M01 Q1005
  • 271320Z 32013KT 9999 SCT028 08/M00 Q1005
  • 271250Z 32011KT 9999 SCT028 07/00 Q1004
  • 271220Z 32014G24KT 9999 SCT024 07/01 Q1003

TAF AMD TAF EGBJ
Valide du 27 à 15h jusqu'au 27 à 20h UTC


271444Z 2715/2720 32012KT 9999 SCT025
TEMPO 2715/2717 32016G26KT



MET'MAP, la Météo Aéronautique d'un coup d'oeil ! - Copyright ORBIFLY Décembre 2007 - Disclaimer

ORBIFLY MET'MAP TEAM :

Programmation & Développement : Alexandra Zaïnal
Sur une idée originale de : Baudouin d'Aumeries
Assistance à la programmation : Marc-Olivier Méhu
Soutien technique & logistique : Manuel Goepfert

Contact : metmap@orbifly.com




SOURCES & CREDITS :

   NOAA